createdAt,value
2017-10-17T07:03:15.687Z,13.94
2017-10-17T07:04:17.131Z,14.08
2017-10-17T07:05:20.681Z,14.06
2017-10-17T07:06:22.649Z,14.23
2017-10-17T07:07:26.221Z,14.36
2017-10-17T07:08:29.766Z,14.41
2017-10-17T07:09:33.489Z,14.48
2017-10-17T07:10:37.038Z,14.64
2017-10-17T07:11:40.634Z,14.71
2017-10-17T07:12:44.399Z,14.75
2017-10-17T07:13:48.317Z,14.87
2017-10-17T07:14:51.921Z,14.95
2017-10-17T07:15:55.669Z,14.87
2017-10-17T07:16:59.190Z,14.98
2017-10-17T07:18:03.170Z,14.98
2017-10-17T07:19:06.802Z,15.00
2017-10-17T07:20:10.317Z,15.15
2017-10-17T07:21:13.907Z,15.18
2017-10-17T07:22:17.478Z,15.20
2017-10-17T07:23:21.031Z,15.18
2017-10-17T07:24:24.606Z,15.27
2017-10-17T07:25:28.190Z,15.37
2017-10-17T07:26:31.729Z,15.28
2017-10-17T07:27:35.271Z,15.34
2017-10-17T07:28:38.957Z,15.35
2017-10-17T07:29:40.973Z,15.37
2017-10-17T07:30:44.790Z,15.52
2017-10-17T07:31:49.338Z,15.55
2017-10-17T07:32:53.002Z,15.70
2017-10-17T07:33:56.263Z,15.76
2017-10-17T07:34:59.892Z,15.85
2017-10-17T07:36:03.445Z,15.91
2017-10-17T07:37:07.185Z,16.04
2017-10-17T07:38:10.823Z,16.04
2017-10-17T07:39:14.458Z,16.06
2017-10-17T07:40:18.915Z,16.13
2017-10-17T07:41:23.276Z,16.22
2017-10-17T07:42:27.501Z,16.29
2017-10-17T07:43:29.541Z,16.33
2017-10-17T07:44:33.263Z,16.50
2017-10-17T07:45:38.439Z,16.50
2017-10-17T07:46:42.169Z,16.67
2017-10-17T07:47:45.813Z,16.80
2017-10-17T07:48:49.825Z,16.84
2017-10-17T07:49:53.523Z,16.90
2017-10-17T07:50:57.091Z,16.96
2017-10-17T07:52:00.818Z,17.03
2017-10-17T07:53:04.332Z,17.22
2017-10-17T07:54:07.955Z,17.22
2017-10-17T07:55:10.076Z,17.36
2017-10-17T07:56:12.128Z,17.47
2017-10-17T07:57:14.890Z,17.49
2017-10-17T07:58:19.013Z,17.66
2017-10-17T07:59:22.893Z,17.86
2017-10-17T08:00:26.671Z,17.94
2017-10-17T08:01:30.656Z,18.10
2017-10-17T08:02:35.429Z,18.25
2017-10-17T08:03:38.595Z,18.20
2017-10-17T08:04:42.055Z,18.36
2017-10-17T08:05:45.649Z,18.47
2017-10-17T08:06:49.595Z,18.62
2017-10-17T08:07:53.474Z,18.76
2017-10-17T08:08:57.097Z,18.87
2017-10-17T08:10:01.013Z,18.90
2017-10-17T08:11:04.672Z,19.06
2017-10-17T08:12:08.128Z,19.02
2017-10-17T08:13:11.965Z,19.25
2017-10-17T08:14:16.510Z,19.34
2017-10-17T08:15:20.361Z,19.42
2017-10-17T08:16:24.343Z,19.28
2017-10-17T08:17:26.495Z,19.52
2017-10-17T08:18:30.318Z,19.65
2017-10-17T08:19:33.821Z,19.71
2017-10-17T08:20:37.646Z,19.79
2017-10-17T08:21:41.880Z,19.89
2017-10-17T08:22:45.578Z,19.72
2017-10-17T08:23:49.493Z,19.98
2017-10-17T08:24:53.123Z,20.10
2017-10-17T08:25:56.896Z,20.25
2017-10-17T08:27:00.064Z,20.38
2017-10-17T08:28:03.228Z,20.58
2017-10-17T08:29:07.444Z,20.82
2017-10-17T08:30:11.214Z,20.90
2017-10-17T08:31:16.488Z,21.11
2017-10-17T08:32:20.111Z,21.34
2017-10-17T08:33:23.821Z,21.59
2017-10-17T08:34:27.461Z,21.79
2017-10-17T08:35:31.470Z,21.99
2017-10-17T08:36:35.229Z,22.27
2017-10-17T08:37:39.579Z,22.33
2017-10-17T08:38:43.333Z,22.74
2017-10-17T08:39:46.881Z,22.81
2017-10-17T08:40:50.597Z,23.01
2017-10-17T08:41:54.276Z,23.16
2017-10-17T08:42:57.957Z,23.38
2017-10-17T08:44:01.637Z,23.59
2017-10-17T08:45:05.965Z,23.63
2017-10-17T08:46:08.065Z,23.96
2017-10-17T08:47:12.320Z,24.12
2017-10-17T08:48:16.143Z,24.23
2017-10-17T08:49:19.760Z,24.41
2017-10-17T08:50:26.047Z,24.51
2017-10-17T08:51:30.640Z,24.71
2017-10-17T08:52:34.223Z,24.87
2017-10-17T08:53:38.817Z,25.07
2017-10-17T08:54:42.897Z,25.16
2017-10-17T08:55:46.864Z,25.39
2017-10-17T08:56:50.648Z,25.56
2017-10-17T08:57:54.660Z,25.69
2017-10-17T08:58:56.690Z,25.96
2017-10-17T09:00:00.362Z,26.16
2017-10-17T09:01:04.005Z,26.36
2017-10-17T09:02:06.069Z,26.29
2017-10-17T09:03:09.604Z,26.31
2017-10-17T09:04:13.501Z,26.31
2017-10-17T09:05:17.170Z,26.38
2017-10-17T09:06:22.412Z,26.61
2017-10-17T09:07:26.167Z,26.46
2017-10-17T09:08:29.875Z,26.68
2017-10-17T09:09:33.837Z,26.72
2017-10-17T09:10:37.488Z,26.97
2017-10-17T09:11:41.434Z,26.94
2017-10-17T09:12:48.117Z,27.05
2017-10-17T09:13:52.103Z,27.11
2017-10-17T09:14:56.353Z,27.31
2017-10-17T09:16:00.633Z,27.35
2017-10-17T09:17:04.215Z,27.65
2017-10-17T09:18:08.285Z,27.61
2017-10-17T09:19:12.973Z,27.96
2017-10-17T09:20:16.903Z,27.83
2017-10-17T09:21:22.843Z,28.14
2017-10-17T09:22:26.746Z,28.17
2017-10-17T09:23:30.563Z,28.51
2017-10-17T09:24:35.017Z,28.74
2017-10-17T09:25:39.009Z,29.03
2017-10-17T09:26:41.109Z,28.89
2017-10-17T09:27:44.643Z,29.00
2017-10-17T09:28:48.145Z,28.67
2017-10-17T09:29:51.951Z,28.70
2017-10-17T09:30:54.834Z,28.77
2017-10-17T09:31:58.285Z,28.83
2017-10-17T09:33:00.792Z,28.76
2017-10-17T09:34:03.005Z,29.00
2017-10-17T09:35:06.066Z,28.70
2017-10-17T09:36:09.667Z,28.38
2017-10-17T09:37:13.007Z,28.32
2017-10-17T09:38:15.090Z,28.62
2017-10-17T09:39:17.499Z,28.57
2017-10-17T09:40:19.838Z,28.54
2017-10-17T09:41:22.580Z,28.77
2017-10-17T09:42:26.278Z,28.70
2017-10-17T09:43:28.365Z,28.52
2017-10-17T09:44:31.901Z,28.24
2017-10-17T09:45:40.393Z,28.35
